Time;durP1;ratioP1;P1;durP2;ratioP2;P2;SDS_P1;SDS_P2;PMS_P1;PMS_P2;Temp;Humidity;BMP_temperature;BMP_pressure;BME280_temperature;BME280_humidity;BME280_pressure;Samples;Min_cycle;Max_cycle;Signal;HPM_P1;HPM_P2
2023/03/04 00:02:24;;;;;;;36.10;22.70;;;;;;;0.48;76.65;98843.94;107650;1253;76205;-41
2023/03/04 00:04:53;;;;;;;35.20;22.10;;;;;;;0.45;76.86;98845.23;107523;1256;69935;-41
2023/03/04 00:07:22;;;;;;;41.50;24.30;;;;;;;0.42;77.12;98841.64;107544;1251;71332;-41
2023/03/04 00:09:52;;;;;;;41.40;23.90;;;;;;;0.39;77.20;98837.30;107663;1254;60364;-41
2023/03/04 00:12:20;;;;;;;37.60;22.30;;;;;;;0.35;77.29;98832.52;107697;1254;61526;-40
2023/03/04 00:14:49;;;;;;;37.70;21.30;;;;;;;0.36;77.50;98829.75;107726;1252;75128;-39
2023/03/04 00:17:24;;;;;;;33.30;20.20;;;;;;;0.44;77.30;98824.22;107700;1254;69442;-39
2023/03/04 00:19:52;;;;;;;34.80;20.90;;;;;;;0.49;77.27;98820.09;107606;1254;73753;-39
2023/03/04 00:22:20;;;;;;;35.30;22.20;;;;;;;0.51;76.93;98817.05;107675;1256;60829;-39
2023/03/04 00:24:50;;;;;;;34.20;21.50;;;;;;;0.49;76.94;98812.63;107723;1254;61316;-40
2023/03/04 00:27:19;;;;;;;36.60;21.60;;;;;;;0.47;76.62;98811.18;107675;1255;75058;-39
2023/03/04 00:29:47;;;;;;;32.60;20.60;;;;;;;0.48;76.32;98808.23;107626;1254;70184;-39
2023/03/04 00:32:17;;;;;;;36.60;21.90;;;;;;;0.50;76.35;98809.66;107597;1254;73909;-40
2023/03/04 00:34:46;;;;;;;37.30;21.90;;;;;;;0.48;76.42;98810.15;107671;1256;60648;-40
2023/03/04 00:37:14;;;;;;;37.30;22.10;;;;;;;0.42;76.63;98805.01;107695;1256;60450;-40
2023/03/04 00:39:44;;;;;;;37.80;23.20;;;;;;;0.39;76.62;98806.62;107690;1254;74605;-40
2023/03/04 00:42:15;;;;;;;36.00;21.80;;;;;;;0.34;76.60;98806.96;107725;1256;69927;-40
2023/03/04 00:44:45;;;;;;;34.00;21.00;;;;;;;0.34;76.61;98811.45;107656;1254;73721;-39
2023/03/04 00:47:13;;;;;;;36.30;21.90;;;;;;;0.34;76.34;98806.53;107663;1254;60668;-39
2023/03/04 00:49:42;;;;;;;37.60;22.10;;;;;;;0.29;76.68;98799.48;107681;1251;61562;-40
2023/03/04 00:52:10;;;;;;;38.70;22.50;;;;;;;0.21;77.00;98791.74;107696;1255;75031;-40
2023/03/04 00:54:41;;;;;;;37.90;22.30;;;;;;;0.13;77.12;98791.11;107695;1255;69675;-40
2023/03/04 00:57:10;;;;;;;36.80;21.70;;;;;;;0.05;77.41;98788.67;107666;1255;73554;-39
2023/03/04 00:59:39;;;;;;;36.20;21.70;;;;;;;0.05;77.43;98782.33;107675;1253;62142;-39
2023/03/04 01:02:10;;;;;;;37.60;21.80;;;;;;;0.10;77.62;98780.33;107712;1254;61228;-39
2023/03/04 01:04:41;;;;;;;42.70;23.60;;;;;;;0.09;77.82;98779.42;107647;1254;75349;-39
2023/03/04 01:07:11;;;;;;;36.90;23.30;;;;;;;0.05;78.06;98773.30;107710;1254;69989;-40
2023/03/04 01:09:44;;;;;;;41.80;24.30;;;;;;;0.00;78.30;98767.41;107706;1256;70747;-40
2023/03/04 01:12:13;;;;;;;41.80;23.20;;;;;;;-0.00;78.56;98766.77;107664;1254;62078;-40
2023/03/04 01:14:41;;;;;;;39.00;24.30;;;;;;;0.05;78.78;98768.00;107689;1255;60392;-40
2023/03/04 01:17:16;;;;;;;39.00;23.80;;;;;;;0.05;79.14;98767.44;107693;1254;74814;-40
2023/03/04 01:19:44;;;;;;;42.90;25.40;;;;;;;0.03;79.22;98764.64;107696;1254;68733;-40
2023/03/04 01:22:15;;;;;;;;;;;;;;;0.01;79.45;98763.77;107620;1254;72585;-40
2023/03/04 01:24:47;;;;;;;41.80;24.80;;;;;;;-0.00;79.50;98759.55;107680;1254;62619;-40
2023/03/04 01:27:16;;;;;;;43.50;25.40;;;;;;;0.04;79.58;98757.94;107688;1254;61493;-39
2023/03/04 01:29:44;;;;;;;43.30;25.40;;;;;;;0.09;79.59;98757.41;107676;1251;74796;-40
2023/03/04 01:32:13;;;;;;;44.30;25.90;;;;;;;0.09;79.70;98751.04;107698;1251;70019;-40
2023/03/04 01:34:42;;;;;;;41.00;25.30;;;;;;;0.08;79.68;98746.65;107688;1254;72672;-39
2023/03/04 01:37:12;;;;;;;48.50;27.70;;;;;;;0.06;79.50;98742.27;107646;1256;62223;-39
2023/03/04 01:39:41;;;;;;;46.00;27.00;;;;;;;0.10;79.69;98744.58;107693;1254;61447;-40
2023/03/04 01:42:20;;;;;;;45.70;26.80;;;;;;;0.13;79.63;98743.64;107695;1256;74999;-39
2023/03/04 01:44:49;;;;;;;47.10;27.50;;;;;;;0.12;79.70;98741.16;107679;1254;67870;-40
2023/03/04 01:47:18;;;;;;;42.60;22.90;;;;;;;0.08;79.83;98732.95;107626;1256;71780;-39
2023/03/04 01:49:53;;;;;;;47.80;28.40;;;;;;;0.04;79.81;98727.16;107719;1252;61920;-40
2023/03/04 01:52:21;;;;;;;43.90;26.90;;;;;;;0.05;79.99;98720.35;107681;1253;61188;-39
2023/03/04 01:54:51;;;;;;;31.40;20.30;;;;;;;0.11;80.02;98717.26;107674;1254;74782;-40
2023/03/04 01:57:21;;;;;;;48.70;28.10;;;;;;;0.12;79.78;98720.58;107632;1257;70346;-40
2023/03/04 02:00:23;;;;;;;46.20;26.20;;;;;;;0.09;80.07;98719.98;107630;1255;73943;-39
2023/03/04 02:02:53;;;;;;;;;;;;;;;0.06;79.72;98716.15;107556;1254;62380;-40
2023/03/04 02:05:21;;;;;;;54.10;27.30;;;;;;;0.04;79.98;98715.75;107677;1252;61292;-40
2023/03/04 02:07:52;;;;;;;45.30;26.70;;;;;;;-0.01;79.80;98704.62;107675;1254;72892;-40
2023/03/04 02:10:22;;;;;;;45.40;27.70;;;;;;;0.07;79.88;98715.98;107721;1253;67602;-39
2023/03/04 02:12:53;;;;;;;48.00;27.80;;;;;;;0.03;80.01;98718.37;107572;1254;73875;-40
2023/03/04 02:15:22;;;;;;;49.30;27.50;;;;;;;0.01;79.89;98720.17;107726;1254;62263;-39
2023/03/04 02:17:57;;;;;;;45.30;27.20;;;;;;;0.03;79.86;98720.19;107648;1254;60252;-39
2023/03/04 02:20:29;;;;;;;50.60;27.10;;;;;;;0.08;79.52;98719.84;106187;1254;1003216;-40
2023/03/04 02:23:06;;;;;;;49.00;27.70;;;;;;;0.08;79.65;98714.77;107620;1254;68916;-39
2023/03/04 02:26:08;;;;;;;47.70;28.90;;;;;;;0.04;79.71;98712.05;107599;1254;73803;-40
2023/03/04 02:28:37;;;;;;;53.90;28.80;;;;;;;0.00;79.90;98702.77;107583;1257;61410;-39
2023/03/04 02:31:06;;;;;;;46.30;26.20;;;;;;;0.00;79.75;98691.14;107699;1254;61215;-39
2023/03/04 02:33:34;;;;;;;46.10;26.40;;;;;;;0.04;79.74;98687.27;107667;1256;74005;-39
2023/03/04 02:36:04;;;;;;;44.50;25.90;;;;;;;0.04;79.70;98685.99;107685;1254;70345;-40
2023/03/04 02:38:32;;;;;;;50.10;28.30;;;;;;;0.03;79.61;98685.23;107586;1257;73915;-41
2023/03/04 02:41:02;;;;;;;48.30;26.30;;;;;;;0.01;79.59;98681.64;107632;1257;62224;-39
2023/03/04 02:43:30;;;;;;;45.20;25.90;;;;;;;0.01;79.64;98671.23;106948;1253;1003607;-39
2023/03/04 02:45:59;;;;;;;44.00;25.80;;;;;;;0.06;79.57;98663.12;107664;1252;75056;-40
2023/03/04 02:48:28;;;;;;;44.20;25.70;;;;;;;0.09;79.43;98666.13;107638;1257;69887;-39
2023/03/04 02:50:56;;;;;;;47.60;26.20;;;;;;;0.07;79.62;98663.21;107671;1257;73825;-40
2023/03/04 02:53:25;;;;;;;48.30;27.40;;;;;;;0.05;79.66;98659.23;107623;1254;62180;-40
2023/03/04 02:55:53;;;;;;;44.90;26.20;;;;;;;0.08;79.42;98667.91;107743;1254;61433;-40
2023/03/04 02:58:24;;;;;;;45.20;25.80;;;;;;;0.14;79.35;98669.58;107714;1256;75006;-40
2023/03/04 03:00:54;;;;;;;49.80;26.90;;;;;;;0.16;79.41;98673.54;107308;1253;457946;-41
2023/03/04 03:04:21;;;;;;;50.40;27.90;;;;;;;0.17;79.42;98675.83;104232;1293;601098;-39
2023/03/04 03:06:51;;;;;;;46.10;27.10;;;;;;;0.15;79.55;98672.52;106762;1267;62223;-39
2023/03/04 03:09:23;;;;;;;45.00;25.70;;;;;;;0.20;79.40;98664.23;106722;1267;60718;-39
2023/03/04 03:11:54;;;;;;;46.90;25.50;;;;;;;0.25;79.45;98663.02;106749;1270;73556;-39
2023/03/04 03:14:22;;;;;;;46.70;26.80;;;;;;;0.26;79.41;98658.67;106743;1266;70177;-39
2023/03/04 03:16:53;;;;;;;49.70;26.40;;;;;;;0.25;79.36;98655.40;106457;1267;241047;-39
2023/03/04 03:19:21;;;;;;;49.00;26.60;;;;;;;0.24;79.46;98652.92;106788;1264;62314;-39
2023/03/04 03:21:50;;;;;;;44.30;25.20;;;;;;;0.28;79.43;98646.89;106807;1263;61361;-39
2023/03/04 03:24:19;;;;;;;48.40;25.90;;;;;;;0.31;79.14;98640.64;106839;1263;73398;-39
2023/03/04 03:26:47;;;;;;;46.30;27.00;;;;;;;0.31;79.22;98644.27;106832;1269;69937;-39
2023/03/04 03:29:16;;;;;;;46.10;26.00;;;;;;;0.32;79.31;98644.62;106850;1263;73825;-39
2023/03/04 03:31:44;;;;;;;43.10;24.20;;;;;;;0.36;79.28;98636.88;106711;1269;62148;-39
2023/03/04 03:34:13;;;;;;;44.80;25.50;;;;;;;0.42;79.11;98634.67;106802;1264;61246;-40
2023/03/04 03:36:42;;;;;;;48.60;27.60;;;;;;;0.44;79.14;98628.42;106723;1266;74143;-39
2023/03/04 03:39:11;;;;;;;50.50;27.30;;;;;;;0.42;79.06;98617.60;106764;1267;69922;-40
2023/03/04 03:41:42;;;;;;;46.90;25.20;;;;;;;0.39;79.12;98609.75;106777;1267;73958;-40
2023/03/04 03:44:10;;;;;;;44.00;25.20;;;;;;;0.41;79.35;98609.84;106831;1264;62394;-39
2023/03/04 03:46:40;;;;;;;;;;;;;;;0.50;79.06;98609.11;106836;1267;61191;-39
2023/03/04 03:49:09;;;;;;;46.90;26.80;;;;;;;0.48;79.05;98602.02;106813;1264;74264;-40
2023/03/04 03:51:39;;;;;;;50.30;25.30;;;;;;;0.45;78.98;98605.73;106825;1263;68817;-39
2023/03/04 03:54:08;;;;;;;49.70;27.70;;;;;;;0.48;79.01;98608.27;106823;1264;73687;-40
2023/03/04 03:56:37;;;;;;;43.00;26.30;;;;;;;0.54;78.53;98605.16;106782;1264;62209;-40
2023/03/04 03:59:06;;;;;;;43.60;24.80;;;;;;;0.59;78.42;98602.76;106861;1267;61249;-40
2023/03/04 04:01:34;;;;;;;46.20;26.00;;;;;;;0.60;78.31;98602.89;106821;1264;73355;-39
2023/03/04 04:04:03;;;;;;;34.60;18.90;;;;;;;0.61;78.28;98595.04;106750;1266;69980;-39
2023/03/04 04:06:32;;;;;;;47.50;26.10;;;;;;;0.59;77.97;98580.35;106686;1265;73549;-39
2023/03/04 04:09:00;;;;;;;41.00;24.80;;;;;;;0.61;78.17;98572.27;106739;1268;62085;-40
2023/03/04 04:11:29;;;;;;;45.20;25.30;;;;;;;0.68;78.00;98565.96;106753;1266;61498;-39
2023/03/04 04:13:58;;;;;;;45.20;25.10;;;;;;;0.71;77.91;98565.40;106721;1264;74068;-40
2023/03/04 04:16:27;;;;;;;45.00;26.30;;;;;;;0.68;77.96;98563.15;106716;1265;70002;-39
2023/03/04 04:18:55;;;;;;;48.20;25.30;;;;;;;0.67;77.86;98559.81;106702;1266;74263;-39
2023/03/04 04:21:25;;;;;;;39.40;23.30;;;;;;;0.70;77.86;98548.89;106707;1265;62074;-39
2023/03/04 04:23:54;;;;;;;41.10;24.30;;;;;;;0.73;77.72;98543.48;106724;1266;61795;-39
2023/03/04 04:26:23;;;;;;;34.90;19.80;;;;;;;0.75;77.52;98545.52;106766;1265;72595;-39
2023/03/04 04:28:51;;;;;;;45.60;24.40;;;;;;;0.72;77.61;98539.61;106717;1266;69977;-39
2023/03/04 04:31:20;;;;;;;41.60;24.30;;;;;;;0.68;77.40;98529.02;106705;1269;72288;-39
2023/03/04 04:33:49;;;;;;;42.90;24.30;;;;;;;0.67;77.15;98525.53;106691;1266;62051;-39
2023/03/04 04:36:17;;;;;;;44.20;24.50;;;;;;;0.69;76.50;98519.92;106737;1264;61539;-39
2023/03/04 04:38:49;;;;;;;44.50;23.90;;;;;;;0.71;76.23;98514.81;106680;1269;74183;-38
2023/03/04 04:41:22;;;;;;;;;;;;;;;0.69;75.91;98508.90;106778;1269;69896;-39
2023/03/04 04:43:51;;;;;;;41.60;22.90;;;;;;;0.59;75.78;98502.45;106706;1265;74172;-38
2023/03/04 04:46:21;;;;;;;35.90;20.80;;;;;;;0.54;75.87;98503.35;106679;1265;62061;-38
2023/03/04 04:48:49;;;;;;;40.10;21.50;;;;;;;0.60;75.60;98501.39;106623;1269;61638;-39
2023/03/04 04:51:18;;;;;;;37.30;21.90;;;;;;;0.62;75.14;98499.09;106686;1269;74261;-38
2023/03/04 04:53:47;;;;;;;38.90;22.40;;;;;;;0.62;75.27;98502.20;106690;1267;68255;-39
2023/03/04 04:56:20;;;;;;;42.10;22.40;;;;;;;0.61;75.03;98498.43;106713;1266;73552;-39
2023/03/04 04:58:48;;;;;;;43.90;23.10;;;;;;;0.62;75.10;98496.14;106748;1266;62681;-39
2023/03/04 05:01:16;;;;;;;40.20;22.40;;;;;;;0.69;74.88;98498.17;106708;1267;61496;-39
2023/03/04 05:03:54;;;;;;;42.50;22.60;;;;;;;0.69;74.46;98488.94;106674;1267;72922;-39
2023/03/04 05:06:23;;;;;;;40.20;21.50;;;;;;;0.66;74.36;98485.25;106713;1266;70012;-40
2023/03/04 05:08:54;;;;;;;40.60;21.40;;;;;;;0.63;74.42;98479.03;106712;1269;73581;-41
2023/03/04 05:11:23;;;;;;;41.70;22.90;;;;;;;0.67;74.42;98480.64;106718;1266;62347;-40
2023/03/04 05:13:51;;;;;;;39.20;22.10;;;;;;;0.73;74.19;98481.08;106708;1266;61588;-40
2023/03/04 05:16:20;;;;;;;39.30;21.90;;;;;;;0.76;74.22;98476.61;106751;1266;74108;-41
2023/03/04 05:18:48;;;;;;;40.00;22.60;;;;;;;0.75;74.12;98476.89;106752;1269;70020;-40
2023/03/04 05:21:17;;;;;;;42.20;22.60;;;;;;;0.75;74.25;98474.76;106705;1267;73907;-40
2023/03/04 05:23:45;;;;;;;39.50;21.70;;;;;;;0.76;73.98;98471.81;106634;1266;62368;-41
2023/03/04 05:26:16;;;;;;;38.70;21.60;;;;;;;0.81;73.88;98474.38;106758;1266;61631;-40
2023/03/04 05:28:45;;;;;;;43.20;22.50;;;;;;;0.82;73.98;98478.86;106713;1265;72547;-41
2023/03/04 05:31:14;;;;;;;39.80;22.60;;;;;;;0.82;73.90;98467.42;106750;1266;68444;-41
2023/03/04 05:33:43;;;;;;;36.90;18.90;;;;;;;0.81;73.71;98466.09;106684;1267;73863;-41
2023/03/04 05:36:12;;;;;;;39.40;21.90;;;;;;;0.80;73.78;98468.95;106740;1267;62575;-40
2023/03/04 05:38:41;;;;;;;28.50;14.90;;;;;;;0.84;73.53;98464.00;106791;1267;61308;-41
2023/03/04 05:41:09;;;;;;;40.40;22.50;;;;;;;0.87;73.48;98457.13;106690;1264;73985;-40
2023/03/04 05:43:41;;;;;;;43.10;24.50;;;;;;;0.86;73.49;98442.77;106720;1266;70011;-40
2023/03/04 05:46:13;;;;;;;38.70;22.00;;;;;;;0.84;73.43;98451.41;106759;1266;73803;-41
2023/03/04 05:48:42;;;;;;;42.10;21.90;;;;;;;0.85;73.83;98455.50;106761;1267;61355;-41
2023/03/04 05:51:10;;;;;;;44.10;23.80;;;;;;;0.90;73.09;98450.37;106761;1267;61503;-41
2023/03/04 05:53:40;;;;;;;44.10;23.70;;;;;;;0.93;72.79;98450.05;106741;1267;73927;-41
2023/03/04 05:56:10;;;;;;;43.70;23.90;;;;;;;0.94;72.65;98447.63;106748;1267;69724;-41
2023/03/04 05:58:38;;;;;;;;;;;;;;;0.94;72.75;98447.18;107250;1262;74010;-41
2023/03/04 06:01:09;;;;;;;45.20;22.50;;;;;;;0.91;73.08;98443.77;107224;1257;62164;-41
2023/03/04 06:03:39;;;;;;;46.40;23.50;;;;;;;0.94;72.85;98441.01;107242;1257;60496;-40
2023/03/04 06:06:07;;;;;;;43.60;23.00;;;;;;;0.97;72.47;98432.73;107250;1257;74242;-40
2023/03/04 06:08:37;;;;;;;43.50;23.80;;;;;;;0.98;72.58;98433.83;107259;1257;68912;-40
2023/03/04 06:11:05;;;;;;;42.40;22.60;;;;;;;0.97;72.81;98428.78;107240;1261;73869;-40
2023/03/04 06:13:39;;;;;;;42.40;22.30;;;;;;;0.97;73.01;98424.73;107217;1257;62145;-41
2023/03/04 06:16:09;;;;;;;44.50;22.90;;;;;;;1.02;73.02;98421.30;107144;1257;61210;-41
2023/03/04 06:18:39;;;;;;;47.40;24.70;;;;;;;1.07;72.75;98414.46;107095;1261;73018;-40
2023/03/04 06:21:07;;;;;;;45.40;24.60;;;;;;;1.07;72.80;98417.23;107122;1257;69954;-40
2023/03/04 06:23:36;;;;;;;46.60;24.70;;;;;;;1.06;72.57;98414.44;107104;1257;73923;-41
2023/03/04 06:26:08;;;;;;;42.20;23.30;;;;;;;1.06;72.91;98411.52;107086;1257;62574;-40
2023/03/04 06:28:37;;;;;;;44.80;23.40;;;;;;;1.11;72.58;98414.57;107146;1258;61230;-39
2023/03/04 06:31:06;;;;;;;48.10;25.50;;;;;;;1.14;72.81;98413.31;107275;1257;73022;-40
2023/03/04 06:33:36;;;;;;;49.20;26.00;;;;;;;1.15;72.92;98413.67;107283;1261;69967;-40
2023/03/04 06:36:05;;;;;;;48.90;26.00;;;;;;;1.17;73.42;98417.63;107251;1257;73747;-40
2023/03/04 06:38:34;;;;;;;45.80;25.20;;;;;;;1.24;73.46;98415.77;107183;1257;62454;-40
2023/03/04 06:41:07;;;;;;;49.40;25.90;;;;;;;1.35;73.43;98416.29;107252;1257;61507;-40
2023/03/04 06:43:36;;;;;;;46.30;26.40;;;;;;;1.42;72.94;98412.42;107260;1257;74389;-40
2023/03/04 06:46:06;;;;;;;50.90;28.50;;;;;;;1.46;73.22;98410.05;107235;1257;69762;-40
2023/03/04 06:48:35;;;;;;;48.50;26.70;;;;;;;1.50;73.39;98402.73;107205;1257;72850;-40
2023/03/04 06:51:08;;;;;;;49.40;27.00;;;;;;;1.53;73.28;98402.79;107238;1257;62423;-40
2023/03/04 06:53:38;;;;;;;51.60;28.10;;;;;;;1.61;73.01;98399.13;107222;1257;61431;-39
2023/03/04 06:56:14;;;;;;;49.30;27.20;;;;;;;1.66;72.73;98398.94;105736;1257;1003453;-40
2023/03/04 06:58:45;;;;;;;49.50;27.80;;;;;;;1.66;72.80;98398.09;107233;1257;69791;-40
2023/03/04 07:01:14;;;;;;;57.40;30.80;;;;;;;1.64;72.64;98385.51;107220;1257;73801;-40
2023/03/04 07:03:43;;;;;;;53.40;28.90;;;;;;;1.68;72.91;98383.05;107199;1257;62418;-40
2023/03/04 07:06:13;;;;;;;51.60;27.70;;;;;;;1.75;72.66;98381.97;107236;1257;61677;-40
2023/03/04 07:08:47;;;;;;;52.30;30.50;;;;;;;1.80;72.50;98373.67;107256;1257;73912;-40
2023/03/04 07:11:17;;;;;;;55.40;28.20;;;;;;;1.82;72.66;98369.23;107241;1257;68396;-40
2023/03/04 07:13:45;;;;;;;49.90;27.10;;;;;;;1.86;72.92;98368.41;107257;1257;72950;-40
2023/03/04 07:16:16;;;;;;;50.10;29.70;;;;;;;1.94;72.35;98365.92;107214;1257;62303;-40
2023/03/04 07:18:45;;;;;;;53.20;30.20;;;;;;;2.02;71.83;98360.34;107253;1262;60326;-40
2023/03/04 07:21:16;;;;;;;55.00;30.90;;;;;;;2.03;72.10;98356.19;107249;1257;74295;-40
2023/03/04 07:23:44;;;;;;;57.60;31.90;;;;;;;2.05;72.13;98357.49;107253;1257;69950;-40
2023/03/04 07:26:13;;;;;;;54.30;31.50;;;;;;;2.08;71.49;98357.88;107203;1257;73103;-40
2023/03/04 07:28:42;;;;;;;57.90;31.70;;;;;;;2.15;71.30;98358.31;107231;1262;59639;-40
2023/03/04 07:31:23;;;;;;;48.20;27.10;;;;;;;2.19;69.89;98356.77;107266;1257;60215;-40
2023/03/04 07:33:58;;;;;;;58.30;31.30;;;;;;;2.18;69.35;98349.01;107178;1257;73823;-41
2023/03/04 07:36:27;;;;;;;57.30;31.60;;;;;;;2.19;69.98;98348.73;107103;1257;69762;-39
2023/03/04 07:39:01;;;;;;;59.30;29.70;;;;;;;2.19;69.01;98346.39;107158;1258;73321;-40
2023/03/04 07:41:30;;;;;;;54.10;30.70;;;;;;;2.24;68.36;98342.25;107226;1260;60909;-40
2023/03/04 07:43:58;;;;;;;56.80;31.70;;;;;;;2.25;67.98;98339.39;107253;1262;61519;-40
2023/03/04 07:46:27;;;;;;;56.60;30.20;;;;;;;2.23;67.49;98352.75;107110;1257;75046;-40
2023/03/04 07:48:55;;;;;;;52.30;28.50;;;;;;;2.18;67.39;98348.10;107268;1257;70007;-39
2023/03/04 07:51:25;;;;;;;54.10;29.80;;;;;;;2.10;67.24;98352.26;107172;1257;73961;-39
2023/03/04 07:53:56;;;;;;;54.10;28.40;;;;;;;2.11;67.94;98350.30;107258;1257;60463;-40
2023/03/04 07:56:29;;;;;;;58.80;29.00;;;;;;;2.19;67.69;98343.85;107206;1257;61592;-40
2023/03/04 07:58:58;;;;;;;55.60;30.00;;;;;;;2.20;67.06;98340.27;107223;1257;75122;-40
2023/03/04 08:01:29;;;;;;;54.20;29.60;;;;;;;2.16;67.28;98336.88;107237;1257;67560;-39
2023/03/04 08:03:57;;;;;;;53.10;28.80;;;;;;;2.14;67.58;98344.35;107272;1257;73027;-40
2023/03/04 08:06:26;;;;;;;53.50;29.20;;;;;;;2.10;67.38;98343.61;107195;1257;62351;-40
2023/03/04 08:09:02;;;;;;;53.60;29.70;;;;;;;2.10;67.09;98337.13;107198;1262;61658;-40
2023/03/04 08:11:33;;;;;;;54.00;29.10;;;;;;;2.09;67.93;98334.49;107148;1257;75054;-40
2023/03/04 08:14:01;;;;;;;53.40;29.00;;;;;;;2.10;67.75;98330.23;107205;1257;69944;-40
2023/03/04 08:16:34;;;;;;;54.60;27.30;;;;;;;2.11;67.37;98328.54;107194;1257;73814;-40
2023/03/04 08:19:03;;;;;;;49.90;27.20;;;;;;;2.16;67.51;98329.46;107190;1257;61428;-39
2023/03/04 08:21:31;;;;;;;49.70;26.50;;;;;;;2.29;67.12;98324.77;107234;1257;61473;-39
2023/03/04 08:24:06;;;;;;;44.00;22.50;;;;;;;2.40;66.59;98328.83;107229;1257;75140;-39
2023/03/04 08:26:41;;;;;;;56.40;28.80;;;;;;;2.44;66.02;98327.14;107259;1257;69636;-39
2023/03/04 08:29:12;;;;;;;52.10;28.50;;;;;;;2.41;65.61;98326.88;107239;1257;71611;-39
2023/03/04 08:31:41;;;;;;;51.70;26.20;;;;;;;2.38;66.16;98324.55;107179;1257;60799;-39
2023/03/04 08:34:10;;;;;;;50.50;27.50;;;;;;;2.40;66.11;98325.92;107200;1257;61539;-40
2023/03/04 08:36:42;;;;;;;39.60;21.40;;;;;;;2.46;65.82;98327.44;107123;1257;75266;-40
2023/03/04 08:39:12;;;;;;;49.80;28.20;;;;;;;2.49;65.42;98323.48;107234;1261;70038;-40
2023/03/04 08:41:40;;;;;;;52.00;28.90;;;;;;;2.47;65.18;98319.42;107237;1257;73710;-40
2023/03/04 08:44:11;;;;;;;54.70;27.80;;;;;;;2.49;65.62;98320.82;107223;1260;60676;-40
2023/03/04 08:46:41;;;;;;;48.80;26.00;;;;;;;2.51;65.22;98322.18;107227;1257;61529;-39
2023/03/04 08:49:11;;;;;;;51.10;26.50;;;;;;;2.53;64.75;98332.42;107203;1257;74944;-40
2023/03/04 08:51:41;;;;;;;49.80;25.80;;;;;;;2.60;65.15;98316.73;107143;1257;69194;-40
2023/03/04 08:54:10;;;;;;;49.00;27.10;;;;;;;2.69;64.47;98324.67;107114;1259;72083;-40
2023/03/04 08:56:40;;;;;;;45.60;24.50;;;;;;;2.77;62.68;98325.17;107108;1262;61007;-40
2023/03/04 08:59:08;;;;;;;40.80;20.40;;;;;;;2.81;61.20;98323.87;107173;1257;60340;-40
2023/03/04 09:01:38;;;;;;;44.00;24.80;;;;;;;2.84;60.29;98326.16;107196;1257;74701;-40
2023/03/04 09:04:07;;;;;;;44.40;25.80;;;;;;;2.89;60.14;98318.07;107242;1257;69941;-40
2023/03/04 09:06:37;;;;;;;43.10;24.00;;;;;;;2.97;59.99;98315.95;107193;1257;73710;-40
2023/03/04 09:09:06;;;;;;;43.90;23.90;;;;;;;3.00;59.11;98314.08;107221;1257;60444;-40
2023/03/04 09:11:34;;;;;;;44.20;24.60;;;;;;;2.99;58.99;98318.40;107225;1257;61901;-40
2023/03/04 09:14:05;;;;;;;47.10;25.80;;;;;;;2.95;58.91;98322.08;107173;1257;75903;-40
2023/03/04 09:16:34;;;;;;;45.00;24.40;;;;;;;2.89;59.00;98311.52;107208;1258;68454;-40
2023/03/04 09:19:02;;;;;;;42.80;25.40;;;;;;;2.86;59.24;98310.02;107243;1261;73928;-40
2023/03/04 09:21:31;;;;;;;45.70;25.10;;;;;;;2.85;59.64;98310.44;106429;1257;1005141;-39
2023/03/04 09:24:00;;;;;;;46.10;25.50;;;;;;;2.83;59.31;98307.94;107196;1257;60367;-40
2023/03/04 09:26:29;;;;;;;46.20;26.10;;;;;;;2.80;58.91;98302.64;107200;1258;75019;-40
2023/03/04 09:28:59;;;;;;;38.90;19.50;;;;;;;2.77;59.39;98309.05;107280;1257;69901;-40
2023/03/04 09:31:28;;;;;;;43.20;23.90;;;;;;;2.74;59.50;98305.40;107221;1257;71855;-40
2023/03/04 09:33:58;;;;;;;46.30;25.90;;;;;;;2.70;59.73;98301.46;107160;1261;60733;-40
2023/03/04 09:36:26;;;;;;;39.90;23.10;;;;;;;2.67;59.92;98305.89;107077;1262;60326;-40
2023/03/04 09:38:59;;;;;;;42.00;23.00;;;;;;;2.68;60.02;98307.61;107092;1258;74993;-39
2023/03/04 09:41:47;;;;;;;40.50;24.10;;;;;;;2.69;59.55;98301.30;107173;1257;68227;-39
2023/03/04 09:44:26;;;;;;;47.30;24.80;;;;;;;2.69;59.63;98304.49;107044;1261;73742;-39
2023/03/04 09:46:58;;;;;;;42.60;24.00;;;;;;;2.67;59.47;98301.31;107141;1258;60284;-39
2023/03/04 09:49:26;;;;;;;41.30;23.70;;;;;;;2.67;59.49;98302.30;107055;1263;61570;-39
2023/03/04 09:51:58;;;;;;;39.90;23.00;;;;;;;2.67;59.36;98295.25;107206;1257;73989;-39
2023/03/04 09:54:54;;;;;;;41.40;22.80;;;;;;;2.63;59.04;98295.37;107157;1257;69900;-39
2023/03/04 09:57:41;;;;;;;38.60;22.30;;;;;;;2.59;59.18;98299.98;106436;1263;1002882;-39
2023/03/04 10:00:21;;;;;;;38.50;22.20;;;;;;;2.50;59.23;98297.94;107228;1262;60825;-39
2023/03/04 10:03:37;;;;;;;38.60;23.20;;;;;;;2.46;59.55;98294.87;107238;1259;60675;-39
2023/03/04 10:06:08;;;;;;;34.20;20.70;;;;;;;2.42;59.67;98294.73;106701;1269;74914;-39
2023/03/04 10:08:51;;;;;;;34.20;21.30;;;;;;;2.34;59.30;98290.42;107183;1261;69777;-39
2023/03/04 10:11:34;;;;;;;32.60;21.00;;;;;;;2.32;59.61;98293.33;107180;1262;73927;-39
2023/03/04 10:14:15;;;;;;;35.40;20.70;;;;;;;2.28;60.18;98297.45;107149;1258;60578;-39
2023/03/04 10:17:10;;;;;;;33.30;20.80;;;;;;;2.23;60.09;98295.83;107209;1260;61500;-39
2023/03/04 10:19:45;;;;;;;32.30;19.50;;;;;;;2.14;60.24;98300.14;107187;1257;74030;-39
2023/03/04 10:22:18;;;;;;;31.70;19.90;;;;;;;2.09;60.98;98298.20;107204;1262;69300;-39
2023/03/04 10:24:47;;;;;;;30.20;19.80;;;;;;;2.13;61.09;98296.34;107224;1258;71507;-40
2023/03/04 10:27:18;;;;;;;33.20;19.70;;;;;;;2.14;61.16;98293.11;107164;1258;60570;-40
2023/03/04 10:29:46;;;;;;;31.00;19.80;;;;;;;2.12;61.41;98290.92;107234;1258;59359;-40
2023/03/04 10:32:19;;;;;;;32.80;20.40;;;;;;;2.07;61.34;98283.85;107209;1263;74825;-40
2023/03/04 10:34:48;;;;;;;34.40;20.00;;;;;;;1.99;60.93;98276.63;107174;1262;69936;-43
2023/03/04 10:37:16;;;;;;;36.10;21.00;;;;;;;1.96;61.33;98272.61;107088;1263;73913;-40
2023/03/04 10:39:45;;;;;;;34.30;20.70;;;;;;;1.90;61.26;98268.59;107083;1262;60781;-40
2023/03/04 10:42:13;;;;;;;35.00;20.20;;;;;;;1.88;61.56;98265.77;107141;1258;60331;-40
2023/03/04 10:44:54;;;;;;;33.10;19.70;;;;;;;1.85;61.79;98251.70;106406;1263;1003243;-40
2023/03/04 10:47:28;;;;;;;33.80;19.80;;;;;;;1.92;61.60;98246.07;107256;1262;69580;-40
2023/03/04 10:49:59;;;;;;;33.20;19.70;;;;;;;1.98;61.74;98241.13;107268;1262;73972;-40
2023/03/04 10:52:39;;;;;;;31.00;20.10;;;;;;;2.05;61.53;98243.59;107245;1257;60550;-40
2023/03/04 10:55:16;;;;;;;33.40;19.70;;;;;;;2.13;61.52;98231.45;107240;1257;61590;-40
2023/03/04 10:57:48;;;;;;;32.70;21.00;;;;;;;2.23;61.39;98227.57;107240;1262;73837;-40
2023/03/04 11:00:16;;;;;;;30.90;19.60;;;;;;;2.34;61.29;98223.78;107227;1262;70056;-40
2023/03/04 11:02:48;;;;;;;37.60;21.30;;;;;;;2.44;60.85;98220.14;107188;1263;73577;-40
2023/03/04 11:05:24;;;;;;;35.20;21.20;;;;;;;2.46;60.29;98206.30;107260;1262;60682;-40
2023/03/04 11:07:54;;;;;;;34.80;20.20;;;;;;;2.56;59.92;98213.35;106423;1259;1002893;-40
2023/03/04 11:10:39;;;;;;;32.40;20.40;;;;;;;2.53;60.21;98198.50;106397;1263;1003695;-40
2023/03/04 11:13:10;;;;;;;36.70;20.90;;;;;;;2.49;60.58;98211.05;107189;1263;66918;-40
2023/03/04 11:16:00;;;;;;;34.10;19.90;;;;;;;2.50;60.87;98210.00;107206;1257;73702;-40
2023/03/04 11:18:39;;;;;;;32.70;19.70;;;;;;;2.52;60.23;98202.98;107205;1257;61013;-40
2023/03/04 11:21:14;;;;;;;35.50;21.10;;;;;;;2.46;60.63;98206.84;107240;1258;61220;-40
2023/03/04 11:23:47;;;;;;;36.00;20.90;;;;;;;2.38;60.65;98206.43;106456;1257;1002583;-40
2023/03/04 11:26:20;;;;;;;34.50;20.50;;;;;;;2.31;61.17;98191.99;107217;1263;68965;-40
2023/03/04 11:29:12;;;;;;;35.60;21.20;;;;;;;2.28;61.55;98192.73;107235;1257;73921;-40
2023/03/04 11:31:48;;;;;;;31.00;19.30;;;;;;;2.29;61.47;98190.60;107194;1257;60769;-40
2023/03/04 11:34:26;;;;;;;35.10;20.60;;;;;;;2.31;61.43;98190.73;107185;1263;60483;-40
2023/03/04 11:37:03;;;;;;;35.20;21.30;;;;;;;2.32;61.74;98192.55;107195;1257;73541;-40